Time;durP1;ratioP1;P1;durP2;ratioP2;P2;SDS_P1;SDS_P2;PMS_P1;PMS_P2;Temp;Humidity;BMP_temperature;BMP_pressure;BME280_temperature;BME280_humidity;BME280_pressure;Samples;Min_cycle;Max_cycle;Signal;HPM_P1;HPM_P2
2022/11/22 00:00:06;;;;;;;27.08;11.05;;;2.50;99.90;;;;;;4229140;28;20408;-84
2022/11/22 00:02:08;;;;;;;22.50;9.80;;;2.50;99.90;;;;;;4228056;28;20036;-85
2022/11/22 00:04:10;;;;;;;23.75;10.15;;;2.50;99.90;;;;;;4233461;28;20426;-85
2022/11/22 00:06:12;;;;;;;30.33;10.55;;;2.50;99.90;;;;;;4234301;28;20046;-85
2022/11/22 00:08:13;;;;;;;24.48;10.18;;;1.70;99.90;;;;;;4234110;28;20162;-85
2022/11/22 00:10:14;;;;;;;24.20;10.70;;;2.50;99.90;;;;;;4216155;28;20153;-85
2022/11/22 00:12:16;;;;;;;23.17;9.90;;;2.70;99.90;;;;;;4233838;28;20044;-84
2022/11/22 00:14:18;;;;;;;22.55;10.88;;;2.50;99.90;;;;;;4232906;28;20090;-84
2022/11/22 00:16:20;;;;;;;20.73;9.27;;;2.50;99.90;;;;;;4226583;28;20035;-85
2022/11/22 00:18:22;;;;;;;22.15;9.60;;;2.50;99.90;;;;;;4217844;28;20044;-84
2022/11/22 00:20:22;;;;;;;23.75;9.73;;;3.20;99.90;;;;;;4230774;28;20054;-84
2022/11/22 00:22:25;;;;;;;23.60;8.98;;;2.50;99.90;;;;;;4232361;28;20087;-84
2022/11/22 00:24:27;;;;;;;21.67;9.77;;;2.50;99.90;;;;;;4232685;28;20047;-84
2022/11/22 00:26:29;;;;;;;24.90;10.27;;;3.30;99.90;;;;;;4232502;28;20052;-85
2022/11/22 00:28:31;;;;;;;19.13;9.57;;;2.50;99.90;;;;;;4232368;28;20412;-84
2022/11/22 00:30:33;;;;;;;23.95;10.23;;;2.50;99.90;;;;;;4233899;28;20082;-84
2022/11/22 00:32:35;;;;;;;23.00;9.98;;;2.40;99.90;;;;;;4233717;28;20511;-85
2022/11/22 00:34:37;;;;;;;20.75;9.63;;;2.40;99.90;;;;;;4213464;28;20072;-85
2022/11/22 00:36:37;;;;;;;19.95;8.93;;;3.20;99.90;;;;;;4229851;28;20559;-84
2022/11/22 00:38:38;;;;;;;21.08;9.75;;;2.60;99.90;;;;;;4233031;28;20138;-84
2022/11/22 00:40:39;;;;;;;21.63;9.48;;;2.40;99.90;;;;;;4231833;28;20048;-85
2022/11/22 00:42:40;;;;;;;19.27;9.25;;;2.40;99.90;;;;;;4216366;28;20130;-84
2022/11/22 00:44:41;;;;;;;23.73;9.30;;;1.50;99.90;;;;;;4233056;28;20566;-85
2022/11/22 00:46:43;;;;;;;20.85;9.27;;;2.50;99.90;;;;;;4233873;28;20054;-85
2022/11/22 00:48:45;;;;;;;24.23;10.65;;;2.40;99.90;;;;;;4233394;28;20054;-85
2022/11/22 00:50:49;;;;;;;23.50;10.35;;;2.40;99.90;;;;;;4215936;28;20127;-85
2022/11/22 00:52:51;;;;;;;20.40;9.85;;;2.40;99.90;;;;;;4232185;28;20062;-86
2022/11/22 00:54:53;;;;;;;29.23;10.02;;;3.00;99.90;;;;;;4228691;28;20077;-85
2022/11/22 00:56:55;;;;;;;20.58;9.20;;;2.40;99.90;;;;;;4198273;28;20044;-85
2022/11/22 00:58:56;;;;;;;22.90;10.68;;;2.70;99.90;;;;;;4209201;28;20044;-85
2022/11/22 01:00:59;;;;;;;19.30;9.10;;;2.40;99.90;;;;;;4229729;28;20048;-86
2022/11/22 01:03:00;;;;;;;22.60;9.95;;;2.30;99.90;;;;;;4219908;28;20052;-85
2022/11/22 01:05:01;;;;;;;19.70;9.43;;;2.30;99.90;;;;;;4213169;28;20465;-85
2022/11/22 01:07:02;;;;;;;22.50;9.75;;;2.30;99.90;;;;;;4235823;28;20575;-85
2022/11/22 01:09:03;;;;;;;23.52;10.35;;;2.30;99.90;;;;;;4232461;28;20032;-87
2022/11/22 01:11:05;;;;;;;22.30;10.13;;;3.50;99.90;;;;;;4234115;28;20047;-85
2022/11/22 01:13:05;;;;;;;21.55;10.18;;;2.50;99.90;;;;;;4216415;28;20121;-86
2022/11/22 01:15:08;;;;;;;23.13;10.00;;;3.70;99.90;;;;;;4234886;28;20402;-85
2022/11/22 01:17:09;;;;;;;25.75;10.68;;;1.30;99.90;;;;;;4229637;28;20075;-85
2022/11/22 01:19:11;;;;;;;24.13;10.38;;;2.30;99.90;;;;;;4220887;28;20392;-86
2022/11/22 01:21:15;;;;;;;28.83;9.77;;;2.30;99.90;;;;;;4233233;28;20449;-85
2022/11/22 01:23:15;;;;;;;26.63;11.60;;;2.30;99.90;;;;;;4232143;28;20086;-85
2022/11/22 01:25:18;;;;;;;30.27;11.75;;;1.40;99.90;;;;;;4221140;28;20482;-85
2022/11/22 01:27:20;;;;;;;28.05;10.48;;;2.30;99.90;;;;;;4232987;28;20439;-85
2022/11/22 01:29:21;;;;;;;26.33;11.30;;;3.50;99.90;;;;;;4233061;28;20036;-85
2022/11/22 01:31:21;;;;;;;32.08;11.48;;;2.30;99.90;;;;;;4230988;28;20438;-85
2022/11/22 01:33:23;;;;;;;28.30;11.23;;;2.30;99.90;;;;;;4231549;28;20059;-85
2022/11/22 01:35:24;;;;;;;26.38;10.73;;;2.30;99.90;;;;;;4228657;28;20052;-85
2022/11/22 01:37:27;;;;;;;25.77;11.48;;;2.80;99.90;;;;;;4233578;28;20032;-85
2022/11/22 01:39:28;;;;;;;28.30;10.63;;;2.00;99.90;;;;;;4233592;28;20101;-85
2022/11/22 01:41:30;;;;;;;27.50;11.18;;;2.30;99.90;;;;;;4225563;28;20442;-85
2022/11/22 01:43:32;;;;;;;28.02;10.82;;;3.30;99.90;;;;;;4224412;28;20132;-85
2022/11/22 01:45:40;;;;;;;27.65;10.75;;;2.40;99.90;;;;;;4232657;28;20055;-85
2022/11/22 01:47:42;;;;;;;30.45;11.00;;;2.30;99.90;;;;;;4215876;28;20135;-85
2022/11/22 01:50:00;;;;;;;28.55;10.65;;;2.30;99.90;;;;;;4233714;28;20075;-85
2022/11/22 01:52:11;;;;;;;27.33;10.45;;;3.40;99.90;;;;;;4232042;28;20131;-85
2022/11/22 01:54:18;;;;;;;33.72;11.85;;;2.40;99.90;;;;;;4233424;28;20434;-85
2022/11/22 01:56:21;;;;;;;29.63;12.52;;;2.40;99.90;;;;;;4233091;28;20051;-85
2022/11/22 01:58:28;;;;;;;28.70;12.05;;;2.40;99.90;;;;;;4233005;28;20053;-85
2022/11/22 02:00:29;;;;;;;32.13;12.20;;;2.40;99.90;;;;;;4214997;28;20056;-85
2022/11/22 02:02:33;;;;;;;40.55;14.48;;;2.40;99.90;;;;;;4233128;28;20039;-85
2022/11/22 02:04:35;;;;;;;27.83;11.10;;;2.60;99.90;;;;;;4232340;28;20044;-85
2022/11/22 02:07:07;;;;;;;36.47;12.68;;;2.40;99.90;;;;;;4217542;28;20044;-85
2022/11/22 02:09:12;;;;;;;31.23;12.10;;;1.20;99.90;;;;;;4217031;28;20038;-86
2022/11/22 02:11:16;;;;;;;30.65;12.60;;;2.40;99.90;;;;;;4229390;28;20048;-86
2022/11/22 02:13:19;;;;;;;34.10;12.57;;;2.40;99.90;;;;;;4214931;28;20105;-85
2022/11/22 02:15:21;;;;;;;33.25;12.32;;;2.40;99.90;;;;;;4200772;28;20049;-85
2022/11/22 02:17:25;;;;;;;36.88;13.00;;;3.60;99.90;;;;;;4218198;28;20044;-85
2022/11/22 02:19:45;;;;;;;29.63;11.10;;;2.40;99.90;;;;;;4217882;28;20044;-86
2022/11/22 02:21:53;;;;;;;32.40;11.05;;;2.40;99.90;;;;;;4219795;28;20520;-85
2022/11/22 02:24:17;;;;;;;35.57;12.33;;;2.50;99.90;;;;;;4219723;28;20040;-86
2022/11/22 02:26:19;;;;;;;31.50;12.80;;;3.10;99.90;;;;;;4218121;28;20095;-85
2022/11/22 02:28:23;;;;;;;34.38;13.82;;;1.70;99.90;;;;;;4202389;28;20045;-85
2022/11/22 02:30:24;;;;;;;30.85;12.35;;;2.50;99.90;;;;;;4219042;28;20078;-85
2022/11/22 02:32:25;;;;;;;30.38;12.60;;;3.10;99.90;;;;;;4217782;28;20048;-86
2022/11/22 02:34:26;;;;;;;25.27;11.63;;;2.50;99.90;;;;;;4201972;28;20052;-85
2022/11/22 02:36:35;;;;;;;26.73;12.13;;;3.70;99.90;;;;;;4220704;28;20143;-85
2022/11/22 02:38:36;;;;;;;26.77;11.35;;;2.80;99.90;;;;;;4220125;28;20044;-86
2022/11/22 02:41:03;;;;;;;28.73;12.38;;;2.70;99.90;;;;;;4218030;28;20101;-85
2022/11/22 02:43:10;;;;;;;26.30;11.43;;;2.80;99.90;;;;;;4211784;28;20048;-86
2022/11/22 02:45:11;;;;;;;30.17;11.98;;;2.80;99.90;;;;;;4196895;28;20480;-85
2022/11/22 02:47:11;;;;;;;26.67;12.65;;;2.50;99.90;;;;;;4215936;28;20094;-85
2022/11/22 02:49:22;;;;;;;28.35;12.20;;;3.20;99.90;;;;;;4217637;28;20044;-85
2022/11/22 02:51:25;;;;;;;28.05;10.68;;;2.50;99.90;;;;;;4217690;28;20101;-85
2022/11/22 02:53:30;;;;;;;23.88;11.02;;;2.50;99.90;;;;;;4222519;28;20046;-85
2022/11/22 02:55:32;;;;;;;26.95;11.05;;;2.50;99.90;;;;;;4220346;28;20051;-85
2022/11/22 02:57:34;;;;;;;25.30;10.93;;;2.50;99.90;;;;;;4218943;28;20395;-85
2022/11/22 02:59:34;;;;;;;30.27;10.98;;;2.70;99.90;;;;;;4218834;28;20075;-84
2022/11/22 03:01:35;;;;;;;25.00;10.80;;;2.60;99.90;;;;;;4217042;28;20348;-84
2022/11/22 03:03:36;;;;;;;30.08;10.52;;;2.60;99.90;;;;;;4203644;28;20149;-84
2022/11/22 03:05:38;;;;;;;29.27;12.13;;;2.60;99.90;;;;;;4201196;28;20098;-84
2022/11/22 03:07:40;;;;;;;25.38;11.32;;;3.20;99.90;;;;;;4209547;28;20435;-84
2022/11/22 03:09:41;;;;;;;25.17;11.75;;;2.50;99.90;;;;;;4219190;28;20062;-85
2022/11/22 03:11:43;;;;;;;22.63;10.82;;;2.60;99.90;;;;;;4200590;28;20056;-84
2022/11/22 03:13:44;;;;;;;23.27;10.60;;;2.60;99.90;;;;;;4200232;28;20139;-84
2022/11/22 03:15:46;;;;;;;24.98;10.43;;;2.60;99.90;;;;;;4216951;28;20046;-85
2022/11/22 03:17:47;;;;;;;30.27;11.57;;;2.60;99.90;;;;;;4217152;28;20040;-85
2022/11/22 03:19:50;;;;;;;24.58;10.52;;;3.10;99.90;;;;;;4199822;28;20044;-85
2022/11/22 03:21:51;;;;;;;24.55;11.02;;;2.60;99.90;;;;;;4210278;28;20106;-84
2022/11/22 03:23:53;;;;;;;24.15;10.25;;;2.70;99.90;;;;;;4201413;28;20049;-85
2022/11/22 03:25:55;;;;;;;20.17;10.48;;;2.70;99.90;;;;;;4210242;28;20039;-84
2022/11/22 03:27:57;;;;;;;22.92;11.02;;;2.70;99.90;;;;;;4220010;28;20510;-84
2022/11/22 03:29:59;;;;;;;21.92;10.10;;;2.70;99.90;;;;;;4219515;28;20115;-84
2022/11/22 03:32:01;;;;;;;24.65;10.45;;;2.70;99.90;;;;;;4220280;28;20177;-84
2022/11/22 03:34:04;;;;;;;24.90;10.40;;;2.70;99.90;;;;;;4221017;28;20052;-84
2022/11/22 03:36:05;;;;;;;25.40;10.95;;;3.20;99.90;;;;;;4220173;28;20055;-84
2022/11/22 03:38:07;;;;;;;24.33;10.65;;;2.70;99.90;;;;;;4216888;28;20040;-85
2022/11/22 03:40:08;;;;;;;24.50;10.45;;;2.70;99.90;;;;;;4219154;28;20460;-84
2022/11/22 03:42:10;;;;;;;24.50;10.93;;;2.80;99.90;;;;;;4203120;28;20049;-84
2022/11/22 03:44:12;;;;;;;24.40;11.52;;;3.20;99.90;;;;;;4218027;28;20082;-84
2022/11/22 03:46:15;;;;;;;25.40;11.40;;;2.70;99.90;;;;;;4206787;28;20054;-85
2022/11/22 03:48:17;;;;;;;25.88;10.60;;;3.80;99.90;;;;;;4220516;28;20051;-84
2022/11/22 03:50:18;;;;;;;27.95;11.50;;;3.20;99.90;;;;;;4217228;28;20531;-84
2022/11/22 03:52:20;;;;;;;21.38;9.25;;;3.20;99.90;;;;;;4218395;28;20054;-84
2022/11/22 03:54:22;;;;;;;23.58;10.10;;;2.70;99.90;;;;;;4218145;28;20059;-85
2022/11/22 03:56:25;;;;;;;24.90;11.07;;;3.60;99.90;;;;;;4217189;28;20036;-84
2022/11/22 03:58:26;;;;;;;24.83;10.57;;;2.00;99.90;;;;;;4213807;28;20040;-84
2022/11/22 04:00:27;;;;;;;24.63;10.15;;;1.70;99.90;;;;;;4216262;28;20491;-84
2022/11/22 04:02:28;;;;;;;26.45;9.85;;;2.80;99.90;;;;;;4217903;28;20040;-84
2022/11/22 04:04:29;;;;;;;27.40;11.30;;;3.20;99.90;;;;;;4217484;28;20077;-85
2022/11/22 04:06:30;;;;;;;25.35;12.18;;;3.50;99.90;;;;;;4216913;28;20069;-84
2022/11/22 04:08:30;;;;;;;25.17;10.63;;;2.80;99.90;;;;;;4199943;28;20056;-84
2022/11/22 04:10:31;;;;;;;25.27;10.68;;;3.50;99.90;;;;;;4207950;28;20044;-85
2022/11/22 04:12:33;;;;;;;23.13;9.25;;;3.70;99.90;;;;;;4199894;28;20090;-85
2022/11/22 04:16:56;;;;;;;23.00;10.60;;;3.50;99.90;;;;;;4248650;27;20051;-84
2022/11/22 04:18:57;;;;;;;24.55;10.50;;;2.90;99.90;;;;;;4201754;28;20082;-84
2022/11/22 04:23:23;;;;;;;21.83;10.18;;;1.80;99.90;;;;;;4250642;27;20127;-85
2022/11/22 04:25:29;;;;;;;21.67;10.20;;;2.90;99.90;;;;;;4215586;28;20056;-85
2022/11/22 04:27:32;;;;;;;21.10;9.98;;;2.90;99.90;;;;;;4250904;27;20492;-84
2022/11/22 04:29:34;;;;;;;22.75;9.75;;;3.00;99.90;;;;;;4250725;27;20562;-84
2022/11/22 04:33:55;;;;;;;24.42;9.80;;;3.70;99.90;;;;;;4249099;27;20039;-84
2022/11/22 04:35:56;;;;;;;25.83;9.88;;;3.10;99.90;;;;;;4221725;28;20133;-84
2022/11/22 04:37:57;;;;;;;21.27;9.75;;;3.10;99.90;;;;;;4232578;28;20043;-84
2022/11/22 04:39:57;;;;;;;23.58;9.30;;;2.40;99.90;;;;;;4214509;28;20045;-85
2022/11/22 04:46:38;;;;;;;24.55;9.68;;;3.10;99.90;;;;;;4243238;27;20224;-84
2022/11/22 04:48:40;;;;;;;22.67;9.68;;;3.10;99.90;;;;;;4252039;27;20111;-84
2022/11/22 04:53:01;;;;;;;22.30;9.95;;;3.10;99.90;;;;;;4232179;28;20495;-85
2022/11/22 04:55:01;;;;;;;20.67;9.68;;;3.20;99.90;;;;;;4250502;27;20051;-84
2022/11/22 04:57:02;;;;;;;21.63;9.55;;;3.10;99.90;;;;;;4232445;28;20062;-84
2022/11/22 04:59:03;;;;;;;24.70;10.55;;;3.20;99.90;;;;;;4231551;28;20616;-84
2022/11/22 05:01:04;;;;;;;20.50;9.40;;;3.20;99.90;;;;;;4232154;28;20040;-84
2022/11/22 05:03:06;;;;;;;24.08;10.18;;;3.20;99.90;;;;;;4250629;27;20085;-85
2022/11/22 05:05:07;;;;;;;26.02;10.40;;;3.20;99.90;;;;;;4244967;27;20502;-84
2022/11/22 05:07:09;;;;;;;25.05;10.48;;;3.20;99.90;;;;;;4226807;28;20055;-84
2022/11/22 05:09:11;;;;;;;24.02;10.05;;;3.30;99.90;;;;;;4249802;27;20039;-84
2022/11/22 05:11:13;;;;;;;20.77;9.63;;;3.20;99.90;;;;;;4215653;28;20052;-84
2022/11/22 05:13:13;;;;;;;21.70;10.00;;;3.30;99.90;;;;;;4232305;28;20058;-84
2022/11/22 05:15:15;;;;;;;24.58;9.48;;;3.30;99.90;;;;;;4232024;28;20039;-84
2022/11/22 05:17:17;;;;;;;22.70;9.45;;;3.30;99.90;;;;;;4250299;27;20039;-84
2022/11/22 05:19:19;;;;;;;27.23;9.90;;;3.30;99.90;;;;;;4214825;28;20056;-84
2022/11/22 05:21:19;;;;;;;23.27;10.30;;;3.40;99.90;;;;;;4250975;27;20031;-84
2022/11/22 05:25:42;;;;;;;26.52;9.68;;;3.30;99.90;;;;;;4232509;28;20769;-84
2022/11/22 05:27:43;;;;;;;22.13;9.02;;;3.30;99.90;;;;;;4214759;28;20065;-85
2022/11/22 05:29:43;;;;;;;20.92;9.65;;;3.30;99.90;;;;;;4250857;27;20118;-85
2022/11/22 05:31:45;;;;;;;27.88;11.45;;;3.40;99.90;;;;;;4250437;27;20095;-85
2022/11/22 05:33:47;;;;;;;25.15;10.70;;;3.30;99.90;;;;;;4215271;28;20055;-86
2022/11/22 05:35:50;;;;;;;20.67;8.98;;;3.40;99.90;;;;;;4215585;28;20083;-85
2022/11/22 05:37:51;;;;;;;21.92;9.18;;;3.40;99.90;;;;;;4249995;27;20043;-84
2022/11/22 05:39:52;;;;;;;21.77;9.38;;;3.40;99.90;;;;;;4245031;27;20057;-85
2022/11/22 05:41:54;;;;;;;22.35;10.00;;;3.40;99.90;;;;;;4242562;27;20043;-85
2022/11/22 05:43:57;;;;;;;21.67;9.68;;;3.40;99.90;;;;;;4209477;28;20048;-85
2022/11/22 05:46:25;;;;;;;25.65;10.05;;;3.40;99.90;;;;;;4223382;28;20074;-84
2022/11/22 05:48:25;;;;;;;23.63;9.10;;;3.50;99.90;;;;;;4229278;28;20052;-85
2022/11/22 05:50:26;;;;;;;20.45;9.15;;;3.50;99.90;;;;;;4250402;27;20174;-84
2022/11/22 05:52:27;;;;;;;21.58;9.70;;;3.40;99.90;;;;;;4231791;28;20052;-85
2022/11/22 05:54:29;;;;;;;26.73;10.20;;;3.40;99.90;;;;;;4248966;28;20490;-84
2022/11/22 05:56:30;;;;;;;25.45;9.48;;;3.50;99.90;;;;;;4229929;28;20107;-84
2022/11/22 05:58:31;;;;;;;21.60;9.75;;;3.50;99.90;;;;;;4249085;28;20050;-84
2022/11/22 06:00:32;;;;;;;21.08;10.40;;;3.70;99.90;;;;;;4207054;28;20159;-84
2022/11/22 06:02:32;;;;;;;22.63;9.00;;;3.50;99.90;;;;;;4220365;28;20043;-84
2022/11/22 06:04:34;;;;;;;24.52;9.98;;;4.10;99.90;;;;;;4226333;28;20575;-85
2022/11/22 06:06:36;;;;;;;24.17;9.55;;;3.60;99.90;;;;;;4248952;28;20050;-85
2022/11/22 06:08:40;;;;;;;19.10;9.02;;;3.60;99.90;;;;;;4249043;28;20523;-85
2022/11/22 06:10:41;;;;;;;23.42;10.10;;;3.80;99.90;;;;;;4248314;28;20126;-85
2022/11/22 06:12:42;;;;;;;23.98;9.25;;;3.90;99.90;;;;;;4234043;28;20039;-84
2022/11/22 06:14:44;;;;;;;29.40;11.18;;;3.70;99.90;;;;;;4233628;28;20047;-85
2022/11/22 06:16:46;;;;;;;22.67;10.25;;;3.80;99.90;;;;;;4236017;28;20052;-85
2022/11/22 06:18:49;;;;;;;24.10;10.27;;;3.60;99.90;;;;;;4233368;28;20070;-84
2022/11/22 06:20:50;;;;;;;20.88;9.18;;;3.60;99.90;;;;;;4227591;28;20051;-85
2022/11/22 06:22:52;;;;;;;22.88;8.93;;;3.70;99.90;;;;;;4230812;28;20491;-85
2022/11/22 06:24:54;;;;;;;26.88;9.48;;;3.70;99.90;;;;;;4230715;28;20482;-85
2022/11/22 06:26:55;;;;;;;20.30;9.10;;;3.70;99.90;;;;;;4230291;28;20039;-85
2022/11/22 06:28:56;;;;;;;22.40;9.80;;;3.70;99.90;;;;;;4230420;28;20058;-85
2022/11/22 06:31:01;;;;;;;23.42;9.95;;;3.70;99.90;;;;;;4229965;28;20150;-85
2022/11/22 06:33:02;;;;;;;28.10;10.02;;;3.70;99.90;;;;;;4230510;28;20048;-85
2022/11/22 06:35:05;;;;;;;22.52;9.65;;;3.70;99.90;;;;;;4247259;28;20050;-84
2022/11/22 06:37:06;;;;;;;24.88;9.48;;;3.80;99.90;;;;;;4241076;28;20049;-85
2022/11/22 06:39:08;;;;;;;25.13;9.77;;;3.80;99.90;;;;;;4249301;28;20471;-84
2022/11/22 06:41:15;;;;;;;30.60;9.68;;;3.70;99.90;;;;;;4231351;28;20062;-84
2022/11/22 06:43:16;;;;;;;26.25;10.05;;;3.40;99.90;;;;;;4238953;28;20119;-84
2022/11/22 06:45:16;;;;;;;25.58;9.48;;;3.80;99.90;;;;;;4231936;28;20039;-84
2022/11/22 06:47:17;;;;;;;25.33;10.70;;;3.80;99.90;;;;;;4227895;28;20051;-85
2022/11/22 06:49:19;;;;;;;27.50;9.55;;;3.80;99.90;;;;;;4214624;28;20105;-85
2022/11/22 06:51:27;;;;;;;20.35;10.30;;;3.80;99.90;;;;;;4198099;28;20044;-85
2022/11/22 06:53:30;;;;;;;21.15;9.88;;;3.80;99.90;;;;;;4227873;28;20078;-85
2022/11/22 06:55:31;;;;;;;19.10;10.25;;;3.40;99.90;;;;;;4229232;28;20068;-85
2022/11/22 06:57:32;;;;;;;22.13;9.20;;;4.00;99.90;;;;;;4247930;28;20051;-85
2022/11/22 06:59:34;;;;;;;26.38;9.90;;;3.90;99.90;;;;;;4248220;27;20103;-85
2022/11/22 07:01:36;;;;;;;23.48;10.32;;;3.90;99.90;;;;;;4233033;28;20078;-84
2022/11/22 07:03:38;;;;;;;26.08;10.68;;;3.90;99.90;;;;;;4250478;27;20495;-85
2022/11/22 07:05:38;;;;;;;20.77;9.55;;;3.90;99.90;;;;;;4250546;27;20500;-85
2022/11/22 07:07:40;;;;;;;28.88;10.70;;;3.90;99.90;;;;;;4224682;28;20139;-84
2022/11/22 07:09:41;;;;;;;23.80;10.85;;;3.90;99.90;;;;;;4225936;28;20056;-84
2022/11/22 07:11:42;;;;;;;24.77;10.50;;;3.90;99.90;;;;;;4251271;27;20475;-84
2022/11/22 07:13:43;;;;;;;28.05;11.27;;;4.00;99.90;;;;;;4215496;28;20088;-84
2022/11/22 07:15:56;;;;;;;24.42;9.90;;;4.00;99.90;;;;;;4250854;27;20051;-83
2022/11/22 07:17:57;;;;;;;23.77;9.00;;;4.00;99.90;;;;;;4251665;27;20039;-85
2022/11/22 07:19:59;;;;;;;24.75;10.48;;;4.00;99.90;;;;;;4229637;28;20040;-84
2022/11/22 07:22:00;;;;;;;21.10;9.38;;;4.00;99.90;;;;;;4237791;27;20040;-86
2022/11/22 07:24:04;;;;;;;30.45;10.38;;;3.40;99.90;;;;;;4215566;28;20044;-84
2022/11/22 07:26:05;;;;;;;30.83;11.05;;;3.60;99.90;;;;;;4229326;28;20124;-84
2022/11/22 07:28:07;;;;;;;21.80;8.32;;;4.00;99.90;;;;;;4237907;27;20036;-85
2022/11/22 07:30:08;;;;;;;23.65;9.73;;;4.10;99.90;;;;;;4238183;28;20100;-85
2022/11/22 07:32:10;;;;;;;25.45;10.48;;;3.50;99.90;;;;;;4233004;28;20112;-85
2022/11/22 07:34:11;;;;;;;25.13;9.25;;;3.60;99.90;;;;;;4221230;28;20052;-85
2022/11/22 07:36:17;;;;;;;21.60;9.45;;;4.20;99.90;;;;;;4256120;27;20046;-85
2022/11/22 07:38:18;;;;;;;25.38;9.27;;;3.30;99.90;;;;;;4238710;28;20035;-85
2022/11/22 07:40:19;;;;;;;25.42;10.52;;;4.20;99.90;;;;;;4257146;27;20054;-86
2022/11/22 07:42:20;;;;;;;19.88;9.20;;;4.20;99.90;;;;;;4255678;27;20043;-85
2022/11/22 07:44:22;;;;;;;21.05;8.73;;;4.20;99.90;;;;;;4214518;28;20411;-86
2022/11/22 07:46:30;;;;;;;23.83;9.75;;;4.30;99.90;;;;;;4244272;27;20039;-84
2022/11/22 07:48:32;;;;;;;27.02;9.63;;;5.50;99.90;;;;;;4250819;27;20047;-86
2022/11/22 07:50:33;;;;;;;19.60;8.25;;;5.40;99.90;;;;;;4231490;28;20048;-87
2022/11/22 07:52:34;;;;;;;19.95;8.85;;;4.40;99.90;;;;;;4252173;27;20058;-87
2022/11/22 07:54:36;;;;;;;22.85;9.00;;;4.30;99.90;;;;;;4252244;27;20043;-89
2022/11/22 07:56:37;;;;;;;24.10;9.57;;;4.40;99.90;;;;;;4216279;28;20048;-87
2022/11/22 07:58:39;;;;;;;22.42;8.55;;;4.40;99.90;;;;;;4240679;27;20043;-87
2022/11/22 08:00:41;;;;;;;21.70;7.80;;;4.60;99.90;;;;;;4248999;27;20476;-88
2022/11/22 08:02:43;;;;;;;23.65;8.38;;;4.50;99.90;;;;;;4217604;28;20047;-88
2022/11/22 08:04:44;;;;;;;19.95;8.63;;;3.90;99.90;;;;;;4234891;28;20439;-87
2022/11/22 08:06:46;;;;;;;27.67;9.20;;;5.10;99.90;;;;;;4201690;28;20078;-89
2022/11/22 08:08:47;;;;;;;26.08;9.48;;;4.60;99.90;;;;;;4234866;28;20040;-89
2022/11/22 08:10:49;;;;;;;16.52;7.43;;;4.70;99.90;;;;;;4253259;27;20084;-88
2022/11/22 08:12:50;;;;;;;21.70;8.15;;;4.80;99.90;;;;;;4252278;27;20039;-88
2022/11/22 08:14:52;;;;;;;22.10;8.50;;;4.70;99.90;;;;;;4252813;27;20122;-88
2022/11/22 08:16:53;;;;;;;22.10;8.70;;;4.80;99.90;;;;;;4252235;27;20051;-88
2022/11/22 08:18:55;;;;;;;23.77;8.07;;;4.70;99.90;;;;;;4238807;28;20035;-88
2022/11/22 08:21:22;;;;;;;21.85;7.30;;;4.80;99.90;;;;;;4258887;27;20460;-89
2022/11/22 08:23:23;;;;;;;17.40;6.68;;;4.90;99.90;;;;;;4215713;28;20051;-88
2022/11/22 08:25:26;;;;;;;16.50;7.03;;;4.90;99.90;;;;;;4251389;27;20510;-88
2022/11/22 08:27:29;;;;;;;16.23;6.80;;;4.90;99.90;;;;;;4251541;27;20491;-88
2022/11/22 08:29:31;;;;;;;20.73;7.05;;;5.60;99.90;;;;;;4233814;28;20079;-88
2022/11/22 08:31:33;;;;;;;18.73;6.82;;;5.00;99.90;;;;;;4252072;27;20414;-88
2022/11/22 08:33:35;;;;;;;18.33;8.13;;;5.00;99.90;;;;;;4253118;27;20046;-88
2022/11/22 08:35:36;;;;;;;19.50;6.60;;;5.10;99.90;;;;;;4217090;28;20052;-89
2022/11/22 08:37:38;;;;;;;15.57;5.43;;;5.10;99.90;;;;;;4216778;28;20110;-89
2022/11/22 08:39:39;;;;;;;18.67;6.50;;;5.10;99.90;;;;;;4252698;27;20552;-89
2022/11/22 08:41:40;;;;;;;15.77;5.55;;;5.20;99.90;;;;;;4252504;27;20043;-89
2022/11/22 08:43:41;;;;;;;22.65;6.15;;;5.30;99.90;;;;;;4242784;27;20050;-88
2022/11/22 08:45:43;;;;;;;17.02;6.13;;;5.10;99.90;;;;;;4217076;28;20040;-88
2022/11/22 08:47:45;;;;;;;23.63;5.63;;;5.20;99.90;;;;;;4233152;28;20047;-88
2022/11/22 08:49:46;;;;;;;14.88;4.85;;;5.40;99.90;;;;;;4216918;28;20048;-88
2022/11/22 08:51:48;;;;;;;13.57;5.00;;;6.00;99.90;;;;;;4216870;28;20047;-89
2022/11/22 08:53:49;;;;;;;16.88;4.82;;;5.30;99.90;;;;;;4228833;28;20073;-88
2022/11/22 08:55:50;;;;;;;12.07;5.20;;;5.40;99.90;;;;;;4209700;28;20036;-88
2022/11/22 08:57:51;;;;;;;11.05;4.10;;;5.40;99.90;;;;;;4234255;28;20062;-87
2022/11/22 08:59:51;;;;;;;11.68;4.25;;;5.90;99.90;;;;;;4250622;27;20039;-86
2022/11/22 09:01:53;;;;;;;8.38;4.10;;;5.50;99.90;;;;;;4250885;27;20114;-87
2022/11/22 09:03:54;;;;;;;10.60;3.45;;;5.50;99.90;;;;;;4250456;27;20067;-87
2022/11/22 09:06:08;;;;;;;12.32;4.20;;;5.50;99.90;;;;;;4233284;28;20118;-88
2022/11/22 09:08:08;;;;;;;13.85;3.55;;;5.50;99.90;;;;;;4250144;27;20114;-87
2022/11/22 09:10:10;;;;;;;14.55;4.05;;;5.50;99.90;;;;;;4250930;27;20065;-86
2022/11/22 09:12:11;;;;;;;13.05;3.38;;;5.60;99.90;;;;;;4233003;28;20048;-87
2022/11/22 09:14:13;;;;;;;9.25;3.28;;;5.50;99.90;;;;;;4215980;28;20518;-87
2022/11/22 09:16:18;;;;;;;23.60;3.58;;;5.60;99.90;;;;;;4233834;28;20046;-88
2022/11/22 09:18:20;;;;;;;10.35;3.55;;;5.60;99.90;;;;;;4251597;27;20051;-88
2022/11/22 09:20:21;;;;;;;14.88;4.57;;;5.60;99.90;;;;;;4232619;28;20040;-87
2022/11/22 09:22:24;;;;;;;9.93;3.40;;;5.60;99.90;;;;;;4233432;28;20100;-87
2022/11/22 09:24:25;;;;;;;10.57;3.10;;;5.60;99.90;;;;;;4234026;28;20036;-88
2022/11/22 09:26:26;;;;;;;12.02;3.85;;;5.60;99.90;;;;;;4230281;28;20117;-87
2022/11/22 09:28:28;;;;;;;9.25;4.03;;;6.10;99.90;;;;;;4216099;28;20143;-88
2022/11/22 09:30:30;;;;;;;12.18;3.28;;;5.80;99.90;;;;;;4250875;27;20081;-86
2022/11/22 09:32:30;;;;;;;10.65;3.58;;;5.60;99.90;;;;;;4232377;28;20048;-85
2022/11/22 09:34:31;;;;;;;12.95;3.45;;;5.60;99.90;;;;;;4249807;27;20099;-86
2022/11/22 09:36:33;;;;;;;13.05;3.53;;;5.60;99.90;;;;;;4214962;28;20048;-86
2022/11/22 09:38:35;;;;;;;15.65;3.05;;;5.60;99.90;;;;;;4250403;27;20047;-87
2022/11/22 09:40:36;;;;;;;9.38;3.10;;;5.60;99.90;;;;;;4230555;28;20109;-87
2022/11/22 09:43:13;;;;;;;9.40;2.47;;;5.60;99.90;;;;;;4231766;28;20052;-87
2022/11/22 09:45:32;;;;;;;10.30;3.17;;;5.60;99.90;;;;;;4237009;27;20056;-88
2022/11/22 09:47:54;;;;;;;10.65;3.38;;;5.60;99.90;;;;;;4248875;27;20071;-89
2022/11/22 09:50:13;;;;;;;9.38;2.63;;;5.60;99.90;;;;;;4246863;27;20043;-88
2022/11/22 09:52:39;;;;;;;11.38;2.70;;;5.60;99.90;;;;;;4243017;27;20053;-87
2022/11/22 09:54:50;;;;;;;9.63;3.42;;;4.60;99.90;;;;;;4231014;28;20070;-87
2022/11/22 09:56:58;;;;;;;11.55;2.85;;;5.60;99.90;;;;;;4238059;28;20048;-86
2022/11/22 09:59:09;;;;;;;9.80;2.40;;;5.60;99.90;;;;;;4228962;28;20462;-87
2022/11/22 10:01:38;;;;;;;6.97;2.10;;;5.60;99.90;;;;;;4221728;28;20050;-87
2022/11/22 10:03:52;;;;;;;13.30;3.03;;;5.60;99.90;;;;;;4221929;28;20089;-86
2022/11/22 10:06:00;;;;;;;13.45;2.63;;;5.70;99.90;;;;;;4230707;28;20047;-87
2022/11/22 10:08:38;;;;;;;7.53;2.03;;;5.70;99.90;;;;;;4246684;28;20099;-87
2022/11/22 10:10:41;;;;;;;9.85;2.50;;;5.70;99.90;;;;;;4214265;28;20491;-88
2022/11/22 10:13:10;;;;;;;7.18;2.10;;;5.70;99.90;;;;;;4210956;28;20064;-88
2022/11/22 10:15:28;;;;;;;8.00;1.80;;;5.80;99.90;;;;;;4246900;28;20092;-88
2022/11/22 10:17:42;;;;;;;5.75;1.35;;;5.80;99.90;;;;;;4247528;28;20031;-88
2022/11/22 10:20:08;;;;;;;8.45;2.55;;;5.80;99.90;;;;;;4246326;28;20031;-88
2022/11/22 10:22:13;;;;;;;9.45;1.98;;;5.90;99.90;;;;;;4223519;28;20515;-88
2022/11/22 10:24:17;;;;;;;8.18;1.77;;;5.90;99.90;;;;;;4215150;28;20073;-89
2022/11/22 10:26:33;;;;;;;5.07;1.35;;;5.90;99.90;;;;;;4227765;28;20119;-89
2022/11/22 10:28:40;;;;;;;22.17;2.30;;;5.90;99.90;;;;;;4248450;28;20039;-89
2022/11/22 10:30:54;;;;;;;6.15;1.80;;;6.00;99.90;;;;;;4245486;28;20043;-88
2022/11/22 10:33:09;;;;;;;7.95;1.73;;;6.00;99.90;;;;;;4217220;28;20093;-89
2022/11/22 10:35:13;;;;;;;5.88;1.48;;;6.00;99.90;;;;;;4231811;28;20059;-89
2022/11/22 10:37:31;;;;;;;9.70;1.67;;;6.10;99.90;;;;;;4234469;28;20135;-89
2022/11/22 10:39:49;;;;;;;6.28;1.38;;;6.10;99.90;;;;;;4249374;27;20053;-88
2022/11/22 10:42:27;;;;;;;6.03;1.50;;;6.10;99.90;;;;;;4234900;28;20407;-89
2022/11/22 10:44:40;;;;;;;10.80;2.70;;;6.10;99.90;;;;;;4229656;28;20066;-89
2022/11/22 10:46:55;;;;;;;7.53;1.48;;;6.10;99.90;;;;;;4215836;28;20055;-88
2022/11/22 10:49:19;;;;;;;6.10;1.45;;;6.20;99.90;;;;;;4238462;27;20415;-88
2022/11/22 10:51:29;;;;;;;8.70;2.70;;;6.20;99.90;;;;;;4253397;27;20039;-89
2022/11/22 10:53:48;;;;;;;12.77;1.90;;;6.30;99.90;;;;;;4252102;27;20043;-88
2022/11/22 10:56:12;;;;;;;7.40;1.83;;;6.50;99.90;;;;;;4252204;27;20051;-89
2022/11/22 10:58:37;;;;;;;6.20;1.40;;;7.00;99.90;;;;;;4234367;28;20040;-88